Time;durP1;ratioP1;P1;durP2;ratioP2;P2;SDS_P1;SDS_P2;PMS_P1;PMS_P2;Temp;Humidity;BMP_temperature;BMP_pressure;BME280_temperature;BME280_humidity;BME280_pressure;Samples;Min_cycle;Max_cycle;Signal;HPM_P1;HPM_P2
2022/06/18 00:00:55;;;;;;;4.15;3.10;;;21.90;60.50;;;;;;5068970;28;20421;-72
2022/06/18 00:03:22;;;;;;;4.47;3.15;;;22.00;57.60;;;;;;5070307;28;20334;-72
2022/06/18 00:05:51;;;;;;;6.63;3.65;;;22.00;57.60;;;;;;5069235;28;20136;-72
2022/06/18 00:08:18;;;;;;;5.45;3.40;;;22.00;57.60;;;;;;5068603;28;20059;-71
2022/06/18 00:10:45;;;;;;;6.32;3.55;;;22.80;58.00;;;;;;5068772;28;20062;-71
2022/06/18 00:16:06;;;;;;;5.28;3.15;;;22.00;57.60;;;;;;5068784;28;20086;-72
2022/06/18 00:18:33;;;;;;;5.53;3.40;;;22.00;57.70;;;;;;5070154;28;20275;-71
2022/06/18 00:21:01;;;;;;;6.05;3.28;;;22.00;57.70;;;;;;5070275;28;20047;-71
2022/06/18 00:23:29;;;;;;;5.07;2.80;;;22.00;57.70;;;;;;5059165;28;20059;-71
2022/06/18 00:25:56;;;;;;;5.20;3.15;;;22.00;60.40;;;;;;5048976;28;20139;-71
2022/06/18 00:28:24;;;;;;;5.43;3.10;;;21.90;57.60;;;;;;5048790;28;20057;-71
2022/06/18 00:30:51;;;;;;;4.68;2.90;;;21.80;60.90;;;;;;5050101;28;20075;-72
2022/06/18 00:33:18;;;;;;;5.03;2.92;;;21.90;57.60;;;;;;5049891;28;20051;-71
2022/06/18 00:35:45;;;;;;;4.93;2.97;;;22.40;60.80;;;;;;5048689;28;20624;-71
2022/06/18 00:38:16;;;;;;;4.97;3.20;;;22.00;57.70;;;;;;5063547;28;20050;-72
2022/06/18 00:40:45;;;;;;;4.00;2.92;;;21.90;57.60;;;;;;5052091;28;20052;-71
2022/06/18 00:43:14;;;;;;;5.80;3.60;;;22.00;61.30;;;;;;5068250;28;20083;-71
2022/06/18 00:45:40;;;;;;;4.85;2.78;;;21.90;57.70;;;;;;5068315;28;20409;-72
2022/06/18 00:48:10;;;;;;;6.18;3.45;;;22.00;57.80;;;;;;5068506;28;20055;-72
2022/06/18 00:50:39;;;;;;;4.65;2.63;;;21.80;61.30;;;;;;5067770;28;20156;-71
2022/06/18 00:53:08;;;;;;;4.60;2.97;;;21.90;57.70;;;;;;5067159;28;20056;-71
2022/06/18 00:55:38;;;;;;;5.20;3.20;;;21.70;60.80;;;;;;5068546;28;20146;-72
2022/06/18 00:58:08;;;;;;;4.95;2.78;;;21.80;60.70;;;;;;5068599;28;20048;-71
2022/06/18 01:00:37;;;;;;;5.00;2.90;;;21.80;62.00;;;;;;5068237;28;20059;-71
2022/06/18 01:03:04;;;;;;;6.03;2.90;;;21.90;61.80;;;;;;5067492;28;20060;-72
2022/06/18 01:05:34;;;;;;;4.30;2.90;;;21.90;57.70;;;;;;5067818;28;20052;-72
2022/06/18 01:08:03;;;;;;;4.05;2.78;;;21.80;57.60;;;;;;5069305;28;20570;-71
2022/06/18 01:10:31;;;;;;;4.18;2.80;;;21.80;60.30;;;;;;5068057;28;20060;-72
2022/06/18 01:12:59;;;;;;;5.03;2.65;;;21.10;60.10;;;;;;5068751;28;20049;-72
2022/06/18 01:15:26;;;;;;;4.80;2.80;;;22.60;61.30;;;;;;5069301;28;20070;-71
2022/06/18 01:17:54;;;;;;;4.72;3.00;;;21.80;57.70;;;;;;5068019;28;20056;-71
2022/06/18 01:20:22;;;;;;;3.80;2.55;;;21.80;57.60;;;;;;5056311;28;20084;-72
2022/06/18 01:22:59;;;;;;;5.05;3.25;;;21.90;60.90;;;;;;5048928;28;20095;-72
2022/06/18 01:25:28;;;;;;;6.57;3.05;;;22.40;61.70;;;;;;5048298;28;20057;-72
2022/06/18 01:27:55;;;;;;;4.53;2.70;;;22.10;61.20;;;;;;5048737;28;20061;-71
2022/06/18 01:30:22;;;;;;;4.22;2.67;;;21.80;57.70;;;;;;5047230;28;20132;-72
2022/06/18 01:32:51;;;;;;;4.80;2.95;;;22.10;61.10;;;;;;5048672;28;20128;-71
2022/06/18 01:35:18;;;;;;;4.28;2.83;;;21.80;57.70;;;;;;5065369;28;20057;-71
2022/06/18 01:37:45;;;;;;;3.92;2.80;;;22.60;62.20;;;;;;5062320;28;20048;-71
2022/06/18 01:40:15;;;;;;;3.97;2.80;;;21.80;57.70;;;;;;5048091;28;20052;-71
2022/06/18 01:42:45;;;;;;;3.67;2.78;;;21.80;57.80;;;;;;5048918;28;20386;-71
2022/06/18 01:45:13;;;;;;;5.18;3.13;;;21.80;57.80;;;;;;5048712;28;20049;-71
2022/06/18 01:47:40;;;;;;;3.65;2.42;;;22.90;62.10;;;;;;5050257;28;20045;-72
2022/06/18 01:50:10;;;;;;;4.75;2.88;;;21.80;57.80;;;;;;5067960;28;20062;-71
2022/06/18 01:52:37;;;;;;;4.63;2.90;;;21.90;60.50;;;;;;5067709;28;20087;-72
2022/06/18 01:55:15;;;;;;;3.67;2.63;;;20.70;60.30;;;;;;5067792;28;20057;-71
2022/06/18 01:57:46;;;;;;;4.00;3.03;;;21.80;57.70;;;;;;5067245;28;20513;-71
2022/06/18 02:00:15;;;;;;;4.65;2.80;;;21.70;61.70;;;;;;5062569;28;20144;-71
2022/06/18 02:02:42;;;;;;;3.58;2.53;;;21.80;62.30;;;;;;5064368;28;20053;-71
2022/06/18 02:05:09;;;;;;;3.58;2.58;;;21.70;57.80;;;;;;5067158;28;20055;-71
2022/06/18 02:07:36;;;;;;;3.92;2.65;;;21.70;57.80;;;;;;5065935;28;20056;-72
2022/06/18 02:10:03;;;;;;;3.50;2.50;;;21.70;57.80;;;;;;5068084;28;20057;-72
2022/06/18 02:12:32;;;;;;;5.10;2.78;;;21.60;61.90;;;;;;5070320;28;20485;-71
2022/06/18 02:15:01;;;;;;;4.30;2.60;;;21.70;57.80;;;;;;5070188;28;20048;-72
2022/06/18 02:17:28;;;;;;;4.43;2.92;;;21.70;57.80;;;;;;5071213;28;20552;-71
2022/06/18 02:19:56;;;;;;;3.92;2.67;;;21.70;57.80;;;;;;5070441;28;20067;-72
2022/06/18 02:22:39;;;;;;;2.80;2.40;;;21.70;57.80;;;;;;5071037;28;20063;-71
2022/06/18 02:25:06;;;;;;;4.50;2.83;;;21.50;61.10;;;;;;5071211;28;20511;-72
2022/06/18 02:27:33;;;;;;;5.47;2.83;;;21.20;61.70;;;;;;5071104;28;20057;-72
2022/06/18 02:30:01;;;;;;;3.25;2.55;;;21.70;57.80;;;;;;5070479;28;20128;-71
2022/06/18 02:32:32;;;;;;;3.97;2.50;;;21.70;57.80;;;;;;5071017;28;20080;-72
2022/06/18 02:34:58;;;;;;;4.63;2.60;;;21.70;57.80;;;;;;5071114;28;20053;-71
2022/06/18 02:37:27;;;;;;;5.38;2.70;;;21.60;61.10;;;;;;5071022;28;20139;-72
2022/06/18 02:39:56;;;;;;;4.82;2.67;;;21.70;57.80;;;;;;5071226;28;20144;-72
2022/06/18 02:42:23;;;;;;;3.63;2.55;;;21.70;57.80;;;;;;5070620;28;20422;-71
2022/06/18 02:44:51;;;;;;;3.30;2.40;;;21.70;57.80;;;;;;5069894;28;20070;-72
2022/06/18 02:47:20;;;;;;;3.90;2.72;;;21.70;62.40;;;;;;5070793;28;20063;-72
2022/06/18 02:49:49;;;;;;;3.80;2.42;;;21.70;57.80;;;;;;5070838;28;20056;-72
2022/06/18 02:52:15;;;;;;;3.25;2.60;;;21.70;61.00;;;;;;5066791;28;20128;-72
2022/06/18 02:54:42;;;;;;;3.67;2.55;;;21.70;57.90;;;;;;5057273;28;20045;-71
2022/06/18 02:57:16;;;;;;;3.60;2.60;;;21.70;57.90;;;;;;5070420;28;20055;-71
2022/06/18 02:59:42;;;;;;;3.17;2.40;;;20.60;60.10;;;;;;5070388;28;20048;-71
2022/06/18 03:02:09;;;;;;;3.47;2.50;;;21.60;57.80;;;;;;5070234;28;20052;-71
2022/06/18 03:04:37;;;;;;;4.18;2.55;;;21.60;61.00;;;;;;5050292;28;20057;-72
2022/06/18 03:07:04;;;;;;;3.28;2.40;;;21.60;57.90;;;;;;5051379;28;20414;-71
2022/06/18 03:12:06;;;;;;;3.58;2.67;;;21.80;61.50;;;;;;5051241;28;20481;-72
2022/06/18 03:12:16;;;;;;;3.33;2.58;;;21.60;61.00;;;;;;5050102;28;20053;-71
2022/06/18 03:14:43;;;;;;;3.53;2.50;;;21.60;58.00;;;;;;5051558;28;20047;-72
2022/06/18 03:17:10;;;;;;;3.30;2.20;;;21.60;62.10;;;;;;5050022;28;20067;-72
2022/06/18 03:19:40;;;;;;;2.85;2.40;;;21.60;62.00;;;;;;5066111;28;20128;-72
2022/06/18 03:22:08;;;;;;;2.78;2.35;;;21.60;57.90;;;;;;5048074;28;20052;-71
2022/06/18 03:24:35;;;;;;;2.97;2.63;;;21.50;61.20;;;;;;5047812;28;20132;-71
2022/06/18 03:27:02;;;;;;;3.38;2.55;;;21.60;58.00;;;;;;5048494;28;20693;-71
2022/06/18 03:29:28;;;;;;;3.20;2.45;;;21.60;58.00;;;;;;5049260;28;20049;-71
2022/06/18 03:31:56;;;;;;;3.50;2.40;;;21.60;58.00;;;;;;5049710;28;20067;-71
2022/06/18 03:34:23;;;;;;;3.20;2.25;;;20.50;60.20;;;;;;5049864;28;20055;-71
2022/06/18 03:36:51;;;;;;;3.25;2.50;;;21.50;59.80;;;;;;5049308;28;20052;-72
2022/06/18 03:39:18;;;;;;;3.65;2.50;;;21.50;62.30;;;;;;5050770;28;20617;-72
2022/06/18 03:41:45;;;;;;;3.20;2.65;;;21.60;58.00;;;;;;5050844;28;20051;-72
2022/06/18 03:44:12;;;;;;;3.90;2.83;;;21.60;60.90;;;;;;5049304;28;20060;-72
2022/06/18 03:46:39;;;;;;;3.90;2.38;;;21.50;60.00;;;;;;5050906;28;20509;-71
2022/06/18 03:49:06;;;;;;;3.42;2.47;;;21.60;58.00;;;;;;5050578;28;20049;-71
2022/06/18 03:51:33;;;;;;;3.10;2.47;;;19.90;57.10;;;;;;5060737;28;20056;-71
2022/06/18 03:54:01;;;;;;;2.90;2.40;;;20.70;61.60;;;;;;5069222;28;20048;-72
2022/06/18 03:56:29;;;;;;;5.15;3.13;;;21.60;58.10;;;;;;5068915;28;20417;-72
2022/06/18 03:58:56;;;;;;;3.10;2.35;;;21.60;58.10;;;;;;5070602;28;20400;-72
2022/06/18 04:01:25;;;;;;;3.72;2.80;;;21.70;61.10;;;;;;5068711;28;20526;-71
2022/06/18 04:03:52;;;;;;;2.97;2.22;;;21.70;61.00;;;;;;5068734;28;20056;-71
2022/06/18 04:06:19;;;;;;;3.90;2.45;;;20.80;60.80;;;;;;5069118;28;20060;-71
2022/06/18 04:08:46;;;;;;;3.58;2.40;;;21.50;62.10;;;;;;5068088;28;20087;-71
2022/06/18 04:11:14;;;;;;;4.68;2.60;;;21.50;61.50;;;;;;5069074;28;20052;-72
2022/06/18 04:13:41;;;;;;;3.08;2.50;;;21.70;61.00;;;;;;5068912;28;20060;-71
2022/06/18 04:16:09;;;;;;;3.33;2.80;;;21.60;58.10;;;;;;5070213;28;20486;-72
2022/06/18 04:18:36;;;;;;;3.25;2.42;;;21.20;61.40;;;;;;5069695;28;20081;-71
2022/06/18 04:21:03;;;;;;;3.13;2.50;;;21.60;58.20;;;;;;5069043;28;20057;-71
2022/06/18 04:23:30;;;;;;;3.70;2.55;;;21.60;58.10;;;;;;5064873;28;20576;-71
2022/06/18 04:25:57;;;;;;;3.38;2.47;;;20.50;60.60;;;;;;5048596;28;20136;-72
2022/06/18 04:28:25;;;;;;;3.22;2.45;;;21.60;58.10;;;;;;5049845;28;20482;-72
2022/06/18 04:30:52;;;;;;;3.13;2.28;;;21.50;61.30;;;;;;5048632;28;20140;-72
2022/06/18 04:33:18;;;;;;;3.60;2.40;;;21.60;62.30;;;;;;5047912;28;20659;-71
2022/06/18 04:35:45;;;;;;;3.10;2.25;;;22.10;61.80;;;;;;5048426;28;20085;-72
2022/06/18 04:38:12;;;;;;;3.33;2.60;;;21.60;58.00;;;;;;5056468;28;20084;-71
2022/06/18 04:40:39;;;;;;;4.30;2.80;;;21.60;58.00;;;;;;5068414;28;20052;-71
2022/06/18 04:43:07;;;;;;;3.47;2.70;;;21.60;61.80;;;;;;5069394;28;20739;-71
2022/06/18 04:45:36;;;;;;;2.83;2.30;;;21.50;61.60;;;;;;5069850;28;20048;-71
2022/06/18 04:48:02;;;;;;;3.33;2.60;;;21.40;61.70;;;;;;5069243;28;20048;-71
2022/06/18 04:50:31;;;;;;;3.58;2.42;;;21.60;57.90;;;;;;5067953;28;20053;-71
2022/06/18 04:52:58;;;;;;;3.25;2.65;;;21.60;58.00;;;;;;5068047;28;20125;-71
2022/06/18 04:55:25;;;;;;;3.25;2.50;;;21.60;58.00;;;;;;5057264;28;20053;-71
2022/06/18 04:57:51;;;;;;;4.25;2.38;;;21.60;58.10;;;;;;5065020;28;20058;-72
2022/06/18 05:00:18;;;;;;;3.17;2.28;;;21.60;61.90;;;;;;5067931;28;20123;-71
2022/06/18 05:02:47;;;;;;;4.20;2.55;;;21.50;61.30;;;;;;5068678;28;20059;-72
2022/06/18 05:05:16;;;;;;;3.67;2.53;;;21.60;58.20;;;;;;5067814;28;20060;-71
2022/06/18 05:07:42;;;;;;;2.95;2.22;;;21.70;58.30;;;;;;5069210;28;20052;-72
2022/06/18 05:10:09;;;;;;;2.72;2.40;;;21.90;61.20;;;;;;5068624;28;20090;-71
2022/06/18 05:12:36;;;;;;;3.50;2.50;;;21.00;61.50;;;;;;5051157;28;20048;-72
2022/06/18 05:15:03;;;;;;;4.45;2.50;;;21.80;62.30;;;;;;5048623;28;20052;-71
2022/06/18 05:17:31;;;;;;;3.42;2.58;;;21.70;58.40;;;;;;5048131;28;20387;-71
2022/06/18 05:19:59;;;;;;;3.33;2.58;;;21.70;58.50;;;;;;5047559;28;20486;-71
2022/06/18 05:22:27;;;;;;;3.33;2.45;;;21.70;58.50;;;;;;5047527;28;20084;-71
2022/06/18 05:24:54;;;;;;;3.85;2.40;;;21.70;58.60;;;;;;5048744;28;20494;-71
2022/06/18 05:27:22;;;;;;;3.75;2.40;;;21.40;62.10;;;;;;5051690;28;20048;-71
2022/06/18 05:29:49;;;;;;;2.92;2.30;;;21.70;62.70;;;;;;5069100;28;20044;-71
2022/06/18 05:32:15;;;;;;;3.05;2.40;;;21.70;58.70;;;;;;5068886;28;20059;-71
2022/06/18 05:34:42;;;;;;;3.55;2.50;;;21.80;58.70;;;;;;5067552;28;20053;-72
2022/06/18 05:37:12;;;;;;;4.68;2.80;;;21.80;62.10;;;;;;5068847;28;20087;-71
2022/06/18 05:39:38;;;;;;;2.58;2.30;;;21.80;58.40;;;;;;5067639;28;20159;-72
2022/06/18 05:42:05;;;;;;;4.10;2.50;;;21.70;58.40;;;;;;5067652;28;20139;-72
2022/06/18 05:44:32;;;;;;;4.80;2.85;;;22.40;62.00;;;;;;5060218;28;20063;-72
2022/06/18 05:46:59;;;;;;;2.65;2.38;;;22.00;61.10;;;;;;5047870;28;20049;-72
2022/06/18 05:49:26;;;;;;;4.13;2.65;;;22.10;58.40;;;;;;5047364;28;20131;-71
2022/06/18 05:51:52;;;;;;;3.05;2.40;;;22.20;61.50;;;;;;5047575;28;20118;-71
2022/06/18 05:54:20;;;;;;;2.45;2.13;;;23.10;61.10;;;;;;5047463;28;20504;-71
2022/06/18 05:56:47;;;;;;;3.42;2.45;;;22.20;59.60;;;;;;5056136;28;20062;-71
2022/06/18 05:59:14;;;;;;;3.33;2.63;;;22.80;61.00;;;;;;5065500;28;20124;-71
2022/06/18 06:01:40;;;;;;;2.60;2.40;;;22.50;57.80;;;;;;5063748;28;20147;-70
2022/06/18 06:04:07;;;;;;;3.25;2.42;;;22.60;60.90;;;;;;5055242;28;20051;-72
2022/06/18 06:06:34;;;;;;;3.13;2.45;;;22.60;57.20;;;;;;5047596;28;20417;-73
2022/06/18 06:09:01;;;;;;;3.63;2.53;;;22.70;57.10;;;;;;5048544;28;20049;-70
2022/06/18 06:11:30;;;;;;;3.20;2.50;;;22.80;60.30;;;;;;5048716;28;20053;-70
2022/06/18 06:13:58;;;;;;;2.97;2.45;;;22.90;56.80;;;;;;5047098;28;20061;-70
2022/06/18 06:16:24;;;;;;;3.67;2.88;;;23.00;56.60;;;;;;5048757;28;20603;-70
2022/06/18 06:18:51;;;;;;;3.42;2.30;;;23.00;56.50;;;;;;5064812;28;20061;-71
2022/06/18 06:21:18;;;;;;;5.35;2.50;;;22.90;59.30;;;;;;5069207;28;20051;-72
2022/06/18 06:23:45;;;;;;;3.88;2.40;;;23.30;60.50;;;;;;5066953;28;20155;-71
2022/06/18 06:26:16;;;;;;;2.83;2.30;;;23.20;56.20;;;;;;5068598;28;20409;-71
2022/06/18 06:28:44;;;;;;;6.60;2.80;;;24.20;61.40;;;;;;5066819;28;20147;-72
2022/06/18 06:31:12;;;;;;;3.92;2.70;;;23.40;60.10;;;;;;5058927;28;20048;-72
2022/06/18 06:33:39;;;;;;;3.83;2.97;;;24.10;60.50;;;;;;5066266;28;20131;-72
2022/06/18 06:36:06;;;;;;;4.20;2.78;;;22.80;59.50;;;;;;5067376;28;20140;-71
2022/06/18 06:38:33;;;;;;;5.15;3.20;;;23.60;59.60;;;;;;5068353;28;20115;-71
2022/06/18 06:41:00;;;;;;;3.95;2.60;;;23.60;59.40;;;;;;5067147;28;20056;-71
2022/06/18 06:43:27;;;;;;;3.55;2.55;;;23.60;55.70;;;;;;5066635;28;20552;-71
2022/06/18 06:45:55;;;;;;;5.53;3.20;;;23.60;55.70;;;;;;5067332;28;20139;-74
2022/06/18 06:48:21;;;;;;;4.53;2.47;;;23.70;55.60;;;;;;5067192;28;20106;-73
2022/06/18 06:50:48;;;;;;;5.28;2.78;;;23.90;59.80;;;;;;5063868;28;20045;-71
2022/06/18 06:53:15;;;;;;;5.78;2.70;;;23.70;58.60;;;;;;5048631;28;20081;-71
2022/06/18 06:58:26;;;;;;;3.53;2.60;;;23.90;55.60;;;;;;5050146;28;20448;-73
2022/06/18 07:00:56;;;;;;;5.15;2.70;;;23.90;55.50;;;;;;5050157;28;20059;-71
2022/06/18 07:03:25;;;;;;;4.60;2.78;;;24.00;55.50;;;;;;5070012;28;20537;-71
2022/06/18 07:05:51;;;;;;;4.78;2.85;;;24.10;59.60;;;;;;5070598;28;20504;-71
2022/06/18 07:08:18;;;;;;;4.72;2.65;;;24.10;55.50;;;;;;5069745;28;20127;-70
2022/06/18 07:10:48;;;;;;;6.60;3.00;;;24.10;55.40;;;;;;5071506;28;20040;-70
2022/06/18 07:13:15;;;;;;;15.10;4.25;;;24.10;55.40;;;;;;5070578;28;20538;-70
2022/06/18 07:15:42;;;;;;;17.42;4.20;;;24.10;59.20;;;;;;5070076;28;20056;-70
2022/06/18 07:18:14;;;;;;;14.45;4.35;;;24.20;55.40;;;;;;5071818;28;20044;-70
2022/06/18 07:20:42;;;;;;;11.35;3.90;;;24.40;59.70;;;;;;5069834;28;20133;-70
2022/06/18 07:23:09;;;;;;;7.35;3.72;;;24.30;55.40;;;;;;5071345;28;20561;-70
2022/06/18 07:25:35;;;;;;;10.05;4.20;;;24.20;58.90;;;;;;5069700;28;20048;-70
2022/06/18 07:28:02;;;;;;;9.98;3.92;;;24.30;55.30;;;;;;5070990;28;20048;-70
2022/06/18 07:30:29;;;;;;;8.60;4.10;;;24.40;55.30;;;;;;5069767;28;20128;-70
2022/06/18 07:32:56;;;;;;;12.25;4.00;;;24.90;59.40;;;;;;5070788;28;20045;-70
2022/06/18 07:35:25;;;;;;;13.98;4.30;;;24.50;59.30;;;;;;5071274;28;20070;-70
2022/06/18 07:37:53;;;;;;;10.20;4.20;;;24.40;55.20;;;;;;5070626;28;20052;-70
2022/06/18 07:40:20;;;;;;;7.22;3.55;;;24.50;55.20;;;;;;5050941;28;20099;-70
2022/06/18 07:42:51;;;;;;;8.38;3.97;;;24.00;58.50;;;;;;5067058;28;20428;-71
2022/06/18 07:45:19;;;;;;;9.32;4.10;;;24.60;55.80;;;;;;5071006;28;20056;-71
2022/06/18 07:47:46;;;;;;;8.85;4.00;;;24.60;55.20;;;;;;5060762;28;20071;-71
2022/06/18 07:50:13;;;;;;;8.93;3.78;;;24.60;55.10;;;;;;5065055;28;20072;-69
2022/06/18 07:52:41;;;;;;;10.40;4.45;;;24.60;55.10;;;;;;5059949;28;20056;-71
2022/06/18 07:55:10;;;;;;;6.75;3.47;;;24.70;55.10;;;;;;5050077;28;20045;-70
2022/06/18 07:57:37;;;;;;;10.38;3.50;;;24.70;55.10;;;;;;5055572;28;20118;-71
2022/06/18 08:00:06;;;;;;;9.10;3.80;;;24.80;55.10;;;;;;5048631;28;20252;-70
2022/06/18 08:02:36;;;;;;;6.32;3.83;;;24.80;58.30;;;;;;5056474;28;20071;-70
2022/06/18 08:05:03;;;;;;;8.35;3.75;;;24.80;58.20;;;;;;5059300;28;20063;-70
2022/06/18 08:07:30;;;;;;;8.75;3.55;;;24.80;55.00;;;;;;5059193;28;20565;-71
2022/06/18 08:09:58;;;;;;;10.95;4.03;;;24.90;55.00;;;;;;5060122;28;20127;-70
2022/06/18 08:12:24;;;;;;;9.55;3.60;;;24.90;54.90;;;;;;5058865;28;20051;-70
2022/06/18 08:14:51;;;;;;;8.68;3.35;;;24.80;57.70;;;;;;5059509;28;20123;-71
2022/06/18 08:17:18;;;;;;;6.13;3.47;;;24.90;54.90;;;;;;5057984;28;20049;-70
2022/06/18 08:19:44;;;;;;;6.25;3.45;;;24.90;58.10;;;;;;5070033;28;20107;-70
2022/06/18 08:22:11;;;;;;;8.73;3.50;;;24.90;57.40;;;;;;5063255;28;20049;-69
2022/06/18 08:24:38;;;;;;;5.75;3.03;;;25.70;59.00;;;;;;5057977;28;20565;-72
2022/06/18 08:27:06;;;;;;;9.32;3.92;;;24.90;58.00;;;;;;5057287;28;20051;-70
2022/06/18 08:29:34;;;;;;;6.53;3.50;;;25.00;54.90;;;;;;5050040;28;20051;-70
2022/06/18 08:32:01;;;;;;;5.20;3.13;;;24.90;58.70;;;;;;5052914;28;20089;-70
2022/06/18 08:34:28;;;;;;;7.03;3.50;;;24.90;58.80;;;;;;5063104;28;20090;-70
2022/06/18 08:36:55;;;;;;;4.53;3.33;;;26.00;57.90;;;;;;5068172;28;20131;-71
2022/06/18 08:39:21;;;;;;;7.13;3.38;;;25.10;54.80;;;;;;5068740;28;20078;-70
2022/06/18 08:42:17;;;;;;;6.28;3.30;;;25.10;54.70;;;;;;5069596;28;20058;-69
2022/06/18 08:45:08;;;;;;;8.43;3.50;;;25.10;54.30;;;;;;5051070;28;20136;-69
2022/06/18 08:47:49;;;;;;;8.30;3.45;;;25.10;54.60;;;;;;5066206;28;20445;-70
2022/06/18 08:50:26;;;;;;;6.00;2.92;;;25.10;54.50;;;;;;5058931;28;20048;-71
2022/06/18 08:53:34;;;;;;;4.43;3.03;;;25.10;54.40;;;;;;5067925;28;20501;-71
2022/06/18 08:56:04;;;;;;;7.32;3.83;;;25.20;54.50;;;;;;5060555;28;20558;-70
2022/06/18 08:58:36;;;;;;;10.05;3.45;;;25.10;54.40;;;;;;5068155;28;20076;-71
2022/06/18 09:01:06;;;;;;;8.20;3.10;;;25.20;58.10;;;;;;5068477;28;20072;-70
2022/06/18 09:03:38;;;;;;;8.93;4.13;;;25.20;58.00;;;;;;5067209;28;20044;-71
2022/06/18 09:06:10;;;;;;;6.28;3.55;;;25.20;57.10;;;;;;5052662;28;20067;-71
2022/06/18 09:08:47;;;;;;;6.63;3.50;;;25.20;54.40;;;;;;5048583;28;20072;-70
2022/06/18 09:11:22;;;;;;;54.78;21.23;;;25.60;57.40;;;;;;5049460;28;20055;-70
2022/06/18 09:13:54;;;;;;;19.60;7.95;;;25.10;54.50;;;;;;5048653;28;20604;-70
2022/06/18 09:16:22;;;;;;;20.40;7.72;;;25.30;58.40;;;;;;5049120;28;20051;-70
2022/06/18 09:18:50;;;;;;;16.35;6.90;;;25.40;58.00;;;;;;5067348;28;20151;-70
2022/06/18 09:21:21;;;;;;;14.88;6.75;;;25.00;54.40;;;;;;5067424;28;20722;-69
2022/06/18 09:23:50;;;;;;;15.50;7.43;;;24.70;57.20;;;;;;5061341;28;20306;-70
2022/06/18 09:26:20;;;;;;;14.10;6.38;;;25.20;54.50;;;;;;5062836;28;20073;-70
2022/06/18 09:28:48;;;;;;;20.20;7.53;;;25.20;54.50;;;;;;5064729;28;20045;-69
2022/06/18 09:31:22;;;;;;;17.73;7.70;;;25.00;58.00;;;;;;5049338;28;20052;-71
2022/06/18 09:33:50;;;;;;;14.52;6.80;;;25.20;54.50;;;;;;5054995;28;20131;-71
2022/06/18 09:36:18;;;;;;;14.95;5.93;;;25.20;54.50;;;;;;5067922;28;20131;-70
2022/06/18 09:38:47;;;;;;;14.35;5.97;;;25.20;54.40;;;;;;5064318;28;20256;-70
2022/06/18 09:41:16;;;;;;;12.65;5.72;;;25.70;57.40;;;;;;5047467;28;20133;-70
2022/06/18 09:43:46;;;;;;;11.98;5.43;;;25.20;54.50;;;;;;5047537;28;20139;-70
2022/06/18 09:46:16;;;;;;;22.85;8.10;;;25.20;54.40;;;;;;5048710;28;20055;-71
2022/06/18 09:48:43;;;;;;;49.92;13.95;;;25.10;54.40;;;;;;5052104;28;20424;-71
2022/06/18 09:51:14;;;;;;;23.42;7.88;;;25.10;57.00;;;;;;5067987;28;20049;-71
2022/06/18 09:53:42;;;;;;;49.70;16.40;;;25.00;57.80;;;;;;5048868;28;20056;-71
2022/06/18 09:56:11;;;;;;;29.33;10.65;;;25.10;54.70;;;;;;5058514;28;20143;-71
2022/06/18 09:58:39;;;;;;;27.30;9.80;;;25.10;54.70;;;;;;5068587;28;20048;-71
2022/06/18 10:01:06;;;;;;;23.50;8.98;;;24.60;57.40;;;;;;5064316;28;20047;-71
2022/06/18 10:09:06;;;;;;;21.33;7.97;;;25.10;54.60;;;;;;5068752;28;20347;-70
2022/06/18 10:11:33;;;;;;;18.38;7.65;;;25.10;54.60;;;;;;5061865;28;20603;-71
2022/06/18 10:14:01;;;;;;;18.83;7.15;;;25.10;54.50;;;;;;5055844;28;20716;-70
2022/06/18 10:16:33;;;;;;;16.25;6.93;;;25.10;54.50;;;;;;5047610;28;20048;-70
2022/06/18 10:19:05;;;;;;;17.90;7.47;;;25.10;54.50;;;;;;5047204;28;20091;-71
2022/06/18 10:21:36;;;;;;;22.00;7.30;;;25.40;57.70;;;;;;5059609;28;20041;-71
2022/06/18 10:24:06;;;;;;;16.55;6.72;;;24.90;58.50;;;;;;5050084;28;20053;-71
2022/06/18 10:26:36;;;;;;;18.35;6.75;;;25.00;57.40;;;;;;5067876;28;20055;-71
2022/06/18 10:29:08;;;;;;;17.52;6.45;;;25.10;57.40;;;;;;5066660;28;20060;-71
2022/06/18 10:31:44;;;;;;;17.55;7.03;;;24.70;54.40;;;;;;5069186;28;20044;-71
2022/06/18 10:34:22;;;;;;;20.17;7.07;;;25.10;57.20;;;;;;5070513;28;20063;-70
2022/06/18 10:36:55;;;;;;;15.30;6.30;;;24.70;55.90;;;;;;5068536;28;20062;-70
2022/06/18 10:39:23;;;;;;;11.40;5.45;;;25.10;54.70;;;;;;5070699;28;20140;-72
2022/06/18 10:42:11;;;;;;;13.13;6.13;;;25.10;54.70;;;;;;5061415;28;20135;-72
2022/06/18 10:44:46;;;;;;;14.43;6.43;;;25.10;54.70;;;;;;5050714;28;20128;-71
2022/06/18 10:47:15;;;;;;;14.38;6.53;;;25.10;54.70;;;;;;5067746;28;20135;-71
2022/06/18 10:49:43;;;;;;;15.13;6.07;;;25.10;54.70;;;;;;5050472;28;20052;-69
2022/06/18 10:52:17;;;;;;;12.80;5.80;;;25.00;54.60;;;;;;5052114;28;20049;-70
2022/06/18 10:54:45;;;;;;;14.52;5.55;;;25.00;57.70;;;;;;5050687;28;20075;-69
2022/06/18 10:57:22;;;;;;;12.02;5.40;;;25.00;58.00;;;;;;5063065;28;20472;-70
2022/06/18 10:59:49;;;;;;;11.40;5.30;;;25.00;54.90;;;;;;5070992;28;20135;-70
2022/06/18 11:02:17;;;;;;;13.02;5.13;;;25.00;54.90;;;;;;5070374;28;20049;-70
2022/06/18 11:04:53;;;;;;;12.23;5.30;;;25.00;54.90;;;;;;5070950;28;20058;-70
2022/06/18 11:07:22;;;;;;;14.57;5.18;;;25.60;58.10;;;;;;5071615;28;20049;-70
2022/06/18 11:09:54;;;;;;;9.50;4.45;;;25.00;55.00;;;;;;5070998;28;20124;-71
2022/06/18 11:12:22;;;;;;;12.50;5.20;;;25.00;55.00;;;;;;5071750;28;20051;-69
2022/06/18 11:14:49;;;;;;;12.48;4.85;;;25.20;55.10;;;;;;5069956;28;20084;-72
2022/06/18 11:17:19;;;;;;;11.18;4.82;;;25.00;55.00;;;;;;5053678;28;20131;-69
2022/06/18 11:19:48;;;;;;;11.02;5.13;;;24.90;58.60;;;;;;5067676;28;20049;-70
2022/06/18 11:22:19;;;;;;;11.32;4.63;;;25.00;55.00;;;;;;5071392;28;20048;-69
2022/06/18 11:24:52;;;;;;;11.93;5.05;;;25.00;54.90;;;;;;5070146;28;20481;-71
2022/06/18 11:27:18;;;;;;;9.70;4.60;;;24.20;57.40;;;;;;5069052;28;20052;-71
2022/06/18 11:29:48;;;;;;;8.98;4.43;;;25.00;54.90;;;;;;5069848;28;20067;-71
2022/06/18 11:32:17;;;;;;;10.52;4.53;;;25.00;57.20;;;;;;5051409;28;20056;-69
2022/06/18 11:34:45;;;;;;;8.02;4.38;;;25.10;55.00;;;;;;5070635;28;20045;-70
2022/06/18 11:37:20;;;;;;;9.77;4.20;;;25.90;58.70;;;;;;5057950;28;20055;-68
2022/06/18 11:39:53;;;;;;;8.90;4.50;;;25.70;57.80;;;;;;5049746;28;20059;-71
2022/06/18 11:42:23;;;;;;;12.00;4.50;;;25.10;58.10;;;;;;5050043;28;20045;-70
2022/06/18 11:44:53;;;;;;;11.10;4.50;;;25.10;58.10;;;;;;5051066;28;20052;-70
2022/06/18 11:47:21;;;;;;;15.02;4.10;;;25.10;55.00;;;;;;5051012;28;20063;-70
2022/06/18 11:49:51;;;;;;;9.07;4.72;;;25.20;57.50;;;;;;5050678;28;20537;-71
2022/06/18 11:52:21;;;;;;;8.82;3.75;;;25.10;55.00;;;;;;5050274;28;20045;-69
2022/06/18 11:54:55;;;;;;;8.18;4.05;;;25.10;55.00;;;;;;5046922;28;20144;-70
2022/06/18 11:57:24;;;;;;;8.35;4.13;;;25.00;55.00;;;;;;5063389;28;20485;-70
2022/06/18 11:59:53;;;;;;;7.25;3.88;;;25.00;55.00;;;;;;5070332;28;20536;-70
2022/06/18 12:02:22;;;;;;;7.25;3.45;;;25.10;57.90;;;;;;5069945;28;20048;-70
2022/06/18 12:04:50;;;;;;;6.60;3.63;;;25.00;55.00;;;;;;5068843;28;20055;-71
2022/06/18 12:07:18;;;;;;;6.45;3.22;;;25.00;55.00;;;;;;5069117;28;20478;-70
2022/06/18 12:09:46;;;;;;;6.63;3.78;;;25.10;55.10;;;;;;5069512;28;20048;-70
2022/06/18 12:12:54;;;;;;;7.78;3.75;;;25.10;55.10;;;;;;5069569;28;20045;-70
2022/06/18 12:15:24;;;;;;;9.30;4.03;;;25.10;55.00;;;;;;5049246;28;20446;-70
2022/06/18 12:17:53;;;;;;;7.53;3.22;;;25.00;55.00;;;;;;5063517;28;20040;-72
2022/06/18 12:20:36;;;;;;;8.98;4.00;;;25.10;55.10;;;;;;5051623;28;20678;-70
2022/06/18 12:23:06;;;;;;;6.35;3.22;;;25.10;55.10;;;;;;5032291;28;20554;-70
2022/06/18 12:25:39;;;;;;;8.15;3.63;;;24.90;57.90;;;;;;5048515;28;20045;-71
2022/06/18 12:28:10;;;;;;;6.65;3.15;;;25.00;55.20;;;;;;5050061;28;20048;-70
2022/06/18 12:30:38;;;;;;;8.85;3.85;;;25.00;57.90;;;;;;5048512;28;20135;-71
2022/06/18 12:33:07;;;;;;;7.25;3.38;;;25.00;55.30;;;;;;5049383;28;20059;-71
2022/06/18 12:35:37;;;;;;;9.55;3.83;;;24.90;55.30;;;;;;5048588;28;20056;-70
2022/06/18 12:38:10;;;;;;;5.35;3.30;;;24.90;55.40;;;;;;5049258;28;20433;-71
2022/06/18 12:40:41;;;;;;;6.75;3.42;;;24.90;55.40;;;;;;5055222;28;20184;-71
2022/06/18 12:43:11;;;;;;;7.50;3.55;;;24.90;55.40;;;;;;5049084;28;20045;-70
2022/06/18 12:45:42;;;;;;;7.00;3.47;;;25.00;55.50;;;;;;5049413;28;20049;-70
2022/06/18 12:48:11;;;;;;;7.43;3.33;;;24.90;55.50;;;;;;5049168;28;20159;-70
2022/06/18 12:50:44;;;;;;;5.53;3.13;;;24.90;55.50;;;;;;5056174;28;20525;-70
2022/06/18 12:53:19;;;;;;;7.82;3.05;;;24.90;55.50;;;;;;5049554;28;20136;-70
2022/06/18 12:55:49;;;;;;;7.57;3.13;;;24.90;55.50;;;;;;5065219;28;20144;-70
2022/06/18 12:58:23;;;;;;;8.45;3.15;;;24.90;55.50;;;;;;5052620;28;20043;-71
2022/06/18 13:00:52;;;;;;;7.45;3.35;;;25.00;55.50;;;;;;5068698;28;20040;-70
2022/06/18 13:03:37;;;;;;;8.43;3.33;;;25.00;55.50;;;;;;5068103;28;20127;-70
2022/06/18 13:06:05;;;;;;;19.13;7.30;;;25.00;55.50;;;;;;5069055;28;20079;-70